sensor_id;sensor_type;location;lat;lon;timestamp;temperature;humidity
21193;DHT22;10754;51.106;7.164;2023-04-15T00:01:25;12.30;1.00
21193;DHT22;10754;51.106;7.164;2023-04-15T00:03:52;12.30;1.00
21193;DHT22;10754;51.106;7.164;2023-04-15T00:06:19;12.40;1.00
21193;DHT22;10754;51.106;7.164;2023-04-15T00:08:45;12.30;1.00
21193;DHT22;10754;51.106;7.164;2023-04-15T00:11:11;12.40;1.00
21193;DHT22;10754;51.106;7.164;2023-04-15T00:13:37;12.40;1.00
21193;DHT22;10754;51.106;7.164;2023-04-15T00:16:04;12.40;1.00
21193;DHT22;10754;51.106;7.164;2023-04-15T00:18:30;12.20;1.00
21193;DHT22;10754;51.106;7.164;2023-04-15T00:20:56;12.20;1.00
21193;DHT22;10754;51.106;7.164;2023-04-15T00:23:22;12.20;1.00
21193;DHT22;10754;51.106;7.164;2023-04-15T00:25:47;12.30;1.00
21193;DHT22;10754;51.106;7.164;2023-04-15T00:28:13;12.30;1.00
21193;DHT22;10754;51.106;7.164;2023-04-15T00:30:38;12.30;1.00
21193;DHT22;10754;51.106;7.164;2023-04-15T00:33:04;12.30;1.00
21193;DHT22;10754;51.106;7.164;2023-04-15T00:35:31;12.30;1.00
21193;DHT22;10754;51.106;7.164;2023-04-15T00:37:57;12.40;1.00
21193;DHT22;10754;51.106;7.164;2023-04-15T00:40:23;12.40;1.00
21193;DHT22;10754;51.106;7.164;2023-04-15T00:42:49;12.40;1.00
21193;DHT22;10754;51.106;7.164;2023-04-15T00:45:14;12.30;1.00
21193;DHT22;10754;51.106;7.164;2023-04-15T00:47:42;12.30;1.00
21193;DHT22;10754;51.106;7.164;2023-04-15T00:50:09;12.30;1.00
21193;DHT22;10754;51.106;7.164;2023-04-15T00:52:34;12.30;1.00
21193;DHT22;10754;51.106;7.164;2023-04-15T00:55:00;12.30;1.00
21193;DHT22;10754;51.106;7.164;2023-04-15T00:57:27;12.40;1.00
21193;DHT22;10754;51.106;7.164;2023-04-15T00:59:54;12.40;1.00
21193;DHT22;10754;51.106;7.164;2023-04-15T01:02:21;12.30;1.00
21193;DHT22;10754;51.106;7.164;2023-04-15T01:04:46;12.30;1.00
21193;DHT22;10754;51.106;7.164;2023-04-15T01:07:12;12.30;1.00
21193;DHT22;10754;51.106;7.164;2023-04-15T01:09:38;12.30;1.00
21193;DHT22;10754;51.106;7.164;2023-04-15T01:12:04;12.20;1.00
21193;DHT22;10754;51.106;7.164;2023-04-15T01:14:30;12.30;1.00
21193;DHT22;10754;51.106;7.164;2023-04-15T01:16:56;12.30;1.00
21193;DHT22;10754;51.106;7.164;2023-04-15T01:19:21;12.30;1.00
21193;DHT22;10754;51.106;7.164;2023-04-15T01:21:47;12.40;1.00
21193;DHT22;10754;51.106;7.164;2023-04-15T01:24:15;12.40;1.00
21193;DHT22;10754;51.106;7.164;2023-04-15T01:26:42;12.40;1.00
21193;DHT22;10754;51.106;7.164;2023-04-15T01:29:08;12.30;1.00
21193;DHT22;10754;51.106;7.164;2023-04-15T01:31:33;12.30;1.00
21193;DHT22;10754;51.106;7.164;2023-04-15T01:34:02;12.30;1.00
21193;DHT22;10754;51.106;7.164;2023-04-15T01:36:32;12.20;1.00
21193;DHT22;10754;51.106;7.164;2023-04-15T01:38:58;12.30;1.00
21193;DHT22;10754;51.106;7.164;2023-04-15T01:41:25;12.30;1.00
21193;DHT22;10754;51.106;7.164;2023-04-15T01:43:51;12.30;1.00
21193;DHT22;10754;51.106;7.164;2023-04-15T01:46:16;12.20;1.00
21193;DHT22;10754;51.106;7.164;2023-04-15T01:48:42;12.20;1.00
21193;DHT22;10754;51.106;7.164;2023-04-15T01:51:08;12.20;1.00
21193;DHT22;10754;51.106;7.164;2023-04-15T01:53:33;12.20;1.00
21193;DHT22;10754;51.106;7.164;2023-04-15T01:55:59;12.30;1.00
21193;DHT22;10754;51.106;7.164;2023-04-15T01:58:24;12.30;1.00
21193;DHT22;10754;51.106;7.164;2023-04-15T02:00:50;12.20;1.00
21193;DHT22;10754;51.106;7.164;2023-04-15T02:03:15;12.20;1.00
21193;DHT22;10754;51.106;7.164;2023-04-15T02:05:41;12.20;1.00
21193;DHT22;10754;51.106;7.164;2023-04-15T02:08:07;12.20;1.00
21193;DHT22;10754;51.106;7.164;2023-04-15T02:10:33;12.20;1.00
21193;DHT22;10754;51.106;7.164;2023-04-15T02:12:59;12.20;1.00
21193;DHT22;10754;51.106;7.164;2023-04-15T02:15:24;12.20;1.00
21193;DHT22;10754;51.106;7.164;2023-04-15T02:17:50;12.20;1.00
21193;DHT22;10754;51.106;7.164;2023-04-15T02:20:18;12.20;1.00
21193;DHT22;10754;51.106;7.164;2023-04-15T02:22:43;12.10;1.00
21193;DHT22;10754;51.106;7.164;2023-04-15T02:25:09;12.00;1.00
21193;DHT22;10754;51.106;7.164;2023-04-15T02:27:35;12.00;1.00
21193;DHT22;10754;51.106;7.164;2023-04-15T02:30:01;12.10;1.00
21193;DHT22;10754;51.106;7.164;2023-04-15T02:32:27;12.10;1.00
21193;DHT22;10754;51.106;7.164;2023-04-15T02:34:53;12.10;1.00
21193;DHT22;10754;51.106;7.164;2023-04-15T02:37:19;12.10;1.00
21193;DHT22;10754;51.106;7.164;2023-04-15T02:39:45;12.00;1.00
21193;DHT22;10754;51.106;7.164;2023-04-15T02:42:10;12.00;1.00
21193;DHT22;10754;51.106;7.164;2023-04-15T02:44:37;12.00;1.00
21193;DHT22;10754;51.106;7.164;2023-04-15T02:47:03;12.00;1.00
21193;DHT22;10754;51.106;7.164;2023-04-15T02:49:30;12.00;1.00
21193;DHT22;10754;51.106;7.164;2023-04-15T02:51:56;12.00;1.00
21193;DHT22;10754;51.106;7.164;2023-04-15T02:54:23;12.00;1.00
21193;DHT22;10754;51.106;7.164;2023-04-15T02:56:49;11.90;1.00
21193;DHT22;10754;51.106;7.164;2023-04-15T02:59:15;11.90;1.00
21193;DHT22;10754;51.106;7.164;2023-04-15T03:01:40;11.80;1.00
21193;DHT22;10754;51.106;7.164;2023-04-15T03:04:06;11.80;1.00
21193;DHT22;10754;51.106;7.164;2023-04-15T03:06:33;11.80;1.00
21193;DHT22;10754;51.106;7.164;2023-04-15T03:08:59;11.70;1.00
21193;DHT22;10754;51.106;7.164;2023-04-15T03:11:25;11.70;1.00
21193;DHT22;10754;51.106;7.164;2023-04-15T03:13:51;11.70;1.00
21193;DHT22;10754;51.106;7.164;2023-04-15T03:16:17;11.60;1.00
21193;DHT22;10754;51.106;7.164;2023-04-15T03:18:42;11.60;1.00
21193;DHT22;10754;51.106;7.164;2023-04-15T03:21:08;11.60;1.00
21193;DHT22;10754;51.106;7.164;2023-04-15T03:23:33;11.60;1.00
21193;DHT22;10754;51.106;7.164;2023-04-15T03:26:02;11.50;1.00
21193;DHT22;10754;51.106;7.164;2023-04-15T03:28:28;11.40;1.00
21193;DHT22;10754;51.106;7.164;2023-04-15T03:30:54;11.50;1.00
21193;DHT22;10754;51.106;7.164;2023-04-15T03:33:20;11.40;1.00
21193;DHT22;10754;51.106;7.164;2023-04-15T03:35:46;11.40;1.00
21193;DHT22;10754;51.106;7.164;2023-04-15T03:38:11;11.30;1.00
21193;DHT22;10754;51.106;7.164;2023-04-15T03:40:39;11.30;1.00
21193;DHT22;10754;51.106;7.164;2023-04-15T03:43:05;11.30;1.00
21193;DHT22;10754;51.106;7.164;2023-04-15T03:45:31;11.30;1.00
21193;DHT22;10754;51.106;7.164;2023-04-15T03:47:56;11.30;1.00
21193;DHT22;10754;51.106;7.164;2023-04-15T03:50:22;11.20;1.00
21193;DHT22;10754;51.106;7.164;2023-04-15T03:52:47;11.10;1.00
21193;DHT22;10754;51.106;7.164;2023-04-15T03:55:13;11.10;1.00
21193;DHT22;10754;51.106;7.164;2023-04-15T03:57:39;11.10;1.00
21193;DHT22;10754;51.106;7.164;2023-04-15T04:00:06;11.10;1.00
21193;DHT22;10754;51.106;7.164;2023-04-15T04:02:32;11.10;1.00
21193;DHT22;10754;51.106;7.164;2023-04-15T04:04:57;11.00;1.00
21193;DHT22;10754;51.106;7.164;2023-04-15T04:07:23;11.00;1.00
21193;DHT22;10754;51.106;7.164;2023-04-15T04:09:49;11.00;1.00
21193;DHT22;10754;51.106;7.164;2023-04-15T04:12:14;11.00;1.00
21193;DHT22;10754;51.106;7.164;2023-04-15T04:14:40;11.00;1.00
21193;DHT22;10754;51.106;7.164;2023-04-15T04:17:06;11.00;1.00
21193;DHT22;10754;51.106;7.164;2023-04-15T04:19:31;10.90;1.00
21193;DHT22;10754;51.106;7.164;2023-04-15T04:21:57;10.90;1.00
21193;DHT22;10754;51.106;7.164;2023-04-15T04:24:22;10.80;1.00
21193;DHT22;10754;51.106;7.164;2023-04-15T04:26:48;10.80;1.00
21193;DHT22;10754;51.106;7.164;2023-04-15T04:29:13;10.90;1.00
21193;DHT22;10754;51.106;7.164;2023-04-15T04:31:39;10.80;1.00
21193;DHT22;10754;51.106;7.164;2023-04-15T04:34:04;10.80;1.00
21193;DHT22;10754;51.106;7.164;2023-04-15T04:36:30;10.80;1.00
21193;DHT22;10754;51.106;7.164;2023-04-15T04:38:56;10.80;1.00
21193;DHT22;10754;51.106;7.164;2023-04-15T04:41:21;10.70;1.00
21193;DHT22;10754;51.106;7.164;2023-04-15T04:43:47;10.70;1.00
21193;DHT22;10754;51.106;7.164;2023-04-15T04:46:12;10.70;1.00
21193;DHT22;10754;51.106;7.164;2023-04-15T04:48:38;10.60;1.00
21193;DHT22;10754;51.106;7.164;2023-04-15T04:51:03;10.60;1.00
21193;DHT22;10754;51.106;7.164;2023-04-15T04:53:29;10.70;1.00
21193;DHT22;10754;51.106;7.164;2023-04-15T04:55:55;10.60;1.00
21193;DHT22;10754;51.106;7.164;2023-04-15T04:58:20;10.60;1.00
21193;DHT22;10754;51.106;7.164;2023-04-15T05:00:46;10.60;1.00
21193;DHT22;10754;51.106;7.164;2023-04-15T05:03:12;10.60;1.00
21193;DHT22;10754;51.106;7.164;2023-04-15T05:05:37;10.60;1.00
21193;DHT22;10754;51.106;7.164;2023-04-15T05:08:05;10.60;1.00
21193;DHT22;10754;51.106;7.164;2023-04-15T05:10:31;10.50;1.00
21193;DHT22;10754;51.106;7.164;2023-04-15T05:12:57;10.50;1.00
21193;DHT22;10754;51.106;7.164;2023-04-15T05:15:22;10.50;1.00
21193;DHT22;10754;51.106;7.164;2023-04-15T05:17:48;10.50;1.00
21193;DHT22;10754;51.106;7.164;2023-04-15T05:20:13;10.50;1.00
21193;DHT22;10754;51.106;7.164;2023-04-15T05:22:39;10.50;1.00
21193;DHT22;10754;51.106;7.164;2023-04-15T05:25:05;10.50;1.00
21193;DHT22;10754;51.106;7.164;2023-04-15T05:27:31;10.40;1.00
21193;DHT22;10754;51.106;7.164;2023-04-15T05:29:57;10.40;1.00
21193;DHT22;10754;51.106;7.164;2023-04-15T05:32:22;10.40;1.00
21193;DHT22;10754;51.106;7.164;2023-04-15T05:34:48;10.50;1.00
21193;DHT22;10754;51.106;7.164;2023-04-15T05:37:13;10.40;1.00
21193;DHT22;10754;51.106;7.164;2023-04-15T05:39:39;10.40;1.00
21193;DHT22;10754;51.106;7.164;2023-04-15T05:42:04;10.50;1.00
21193;DHT22;10754;51.106;7.164;2023-04-15T05:44:30;10.50;1.00
21193;DHT22;10754;51.106;7.164;2023-04-15T05:46:56;10.50;1.00
21193;DHT22;10754;51.106;7.164;2023-04-15T05:49:22;10.50;1.00
21193;DHT22;10754;51.106;7.164;2023-04-15T05:51:48;10.50;1.00
21193;DHT22;10754;51.106;7.164;2023-04-15T05:54:13;10.50;1.00
21193;DHT22;10754;51.106;7.164;2023-04-15T05:56:39;10.60;1.00
21193;DHT22;10754;51.106;7.164;2023-04-15T05:59:04;10.60;1.00
21193;DHT22;10754;51.106;7.164;2023-04-15T06:01:31;10.60;1.00
21193;DHT22;10754;51.106;7.164;2023-04-15T06:03:57;10.60;1.00
21193;DHT22;10754;51.106;7.164;2023-04-15T06:06:23;10.70;1.00
21193;DHT22;10754;51.106;7.164;2023-04-15T06:08:48;10.70;1.00
21193;DHT22;10754;51.106;7.164;2023-04-15T06:11:14;10.70;1.00
21193;DHT22;10754;51.106;7.164;2023-04-15T06:13:39;10.70;1.00
21193;DHT22;10754;51.106;7.164;2023-04-15T06:16:05;10.80;1.00
21193;DHT22;10754;51.106;7.164;2023-04-15T06:18:32;10.90;1.00
21193;DHT22;10754;51.106;7.164;2023-04-15T06:20:57;10.90;1.00
21193;DHT22;10754;51.106;7.164;2023-04-15T06:23:23;11.00;1.00
21193;DHT22;10754;51.106;7.164;2023-04-15T06:25:49;11.00;1.00
21193;DHT22;10754;51.106;7.164;2023-04-15T06:28:14;11.10;1.00
21193;DHT22;10754;51.106;7.164;2023-04-15T06:30:40;11.20;1.00
21193;DHT22;10754;51.106;7.164;2023-04-15T06:33:05;11.20;1.00
21193;DHT22;10754;51.106;7.164;2023-04-15T06:35:31;11.40;1.00
21193;DHT22;10754;51.106;7.164;2023-04-15T06:37:57;11.40;1.00
21193;DHT22;10754;51.106;7.164;2023-04-15T06:40:22;11.50;1.00
21193;DHT22;10754;51.106;7.164;2023-04-15T06:42:48;11.60;1.00
21193;DHT22;10754;51.106;7.164;2023-04-15T06:45:13;11.70;1.00
21193;DHT22;10754;51.106;7.164;2023-04-15T06:47:39;11.90;1.00
21193;DHT22;10754;51.106;7.164;2023-04-15T06:50:06;12.00;1.00
21193;DHT22;10754;51.106;7.164;2023-04-15T06:52:31;12.10;1.00
21193;DHT22;10754;51.106;7.164;2023-04-15T06:54:57;12.20;1.00
21193;DHT22;10754;51.106;7.164;2023-04-15T06:57:23;12.30;1.00
21193;DHT22;10754;51.106;7.164;2023-04-15T06:59:49;12.40;1.00
21193;DHT22;10754;51.106;7.164;2023-04-15T07:02:15;12.50;1.00
21193;DHT22;10754;51.106;7.164;2023-04-15T07:04:41;12.50;1.00
21193;DHT22;10754;51.106;7.164;2023-04-15T07:07:06;12.60;1.00
21193;DHT22;10754;51.106;7.164;2023-04-15T07:09:32;12.70;1.00
21193;DHT22;10754;51.106;7.164;2023-04-15T07:11:58;12.80;1.00
21193;DHT22;10754;51.106;7.164;2023-04-15T07:14:24;12.90;1.00
21193;DHT22;10754;51.106;7.164;2023-04-15T07:16:49;12.90;1.00
21193;DHT22;10754;51.106;7.164;2023-04-15T07:19:15;13.00;1.00
21193;DHT22;10754;51.106;7.164;2023-04-15T07:21:41;13.20;1.00
21193;DHT22;10754;51.106;7.164;2023-04-15T07:24:07;13.20;1.00
21193;DHT22;10754;51.106;7.164;2023-04-15T07:26:34;13.20;1.00
21193;DHT22;10754;51.106;7.164;2023-04-15T07:29:00;13.30;1.00
21193;DHT22;10754;51.106;7.164;2023-04-15T07:31:26;13.40;1.00
21193;DHT22;10754;51.106;7.164;2023-04-15T07:33:51;13.40;1.00
21193;DHT22;10754;51.106;7.164;2023-04-15T07:36:17;13.40;1.00
21193;DHT22;10754;51.106;7.164;2023-04-15T07:38:43;13.50;1.00
21193;DHT22;10754;51.106;7.164;2023-04-15T07:41:08;13.60;1.00
21193;DHT22;10754;51.106;7.164;2023-04-15T07:43:34;13.60;1.00
21193;DHT22;10754;51.106;7.164;2023-04-15T07:46:00;13.70;1.00
21193;DHT22;10754;51.106;7.164;2023-04-15T07:48:25;13.80;1.00
21193;DHT22;10754;51.106;7.164;2023-04-15T07:50:52;13.80;1.00
21193;DHT22;10754;51.106;7.164;2023-04-15T07:53:18;13.80;1.00
21193;DHT22;10754;51.106;7.164;2023-04-15T07:55:43;13.80;1.00
21193;DHT22;10754;51.106;7.164;2023-04-15T07:58:08;13.80;1.00
21193;DHT22;10754;51.106;7.164;2023-04-15T08:00:34;13.90;1.00
21193;DHT22;10754;51.106;7.164;2023-04-15T08:03:00;13.90;1.00
21193;DHT22;10754;51.106;7.164;2023-04-15T08:05:26;13.90;1.00
21193;DHT22;10754;51.106;7.164;2023-04-15T08:07:51;14.00;1.00
21193;DHT22;10754;51.106;7.164;2023-04-15T08:10:17;14.20;1.00
21193;DHT22;10754;51.106;7.164;2023-04-15T08:12:42;14.20;1.00
21193;DHT22;10754;51.106;7.164;2023-04-15T08:15:08;14.20;1.00
21193;DHT22;10754;51.106;7.164;2023-04-15T08:17:34;14.20;1.00
21193;DHT22;10754;51.106;7.164;2023-04-15T08:19:59;14.30;1.00
21193;DHT22;10754;51.106;7.164;2023-04-15T08:22:25;14.40;1.00
21193;DHT22;10754;51.106;7.164;2023-04-15T08:24:50;14.50;1.00
21193;DHT22;10754;51.106;7.164;2023-04-15T08:27:16;14.40;1.00
21193;DHT22;10754;51.106;7.164;2023-04-15T08:29:42;14.40;1.00
21193;DHT22;10754;51.106;7.164;2023-04-15T08:32:07;14.50;1.00
21193;DHT22;10754;51.106;7.164;2023-04-15T08:34:34;14.50;1.00
21193;DHT22;10754;51.106;7.164;2023-04-15T08:36:59;14.50;1.00
21193;DHT22;10754;51.106;7.164;2023-04-15T08:39:26;14.60;1.00
21193;DHT22;10754;51.106;7.164;2023-04-15T08:42:01;14.70;1.00
21193;DHT22;10754;51.106;7.164;2023-04-15T08:44:34;14.70;1.00
21193;DHT22;10754;51.106;7.164;2023-04-15T08:47:01;14.80;1.00
21193;DHT22;10754;51.106;7.164;2023-04-15T08:49:28;14.80;1.00
21193;DHT22;10754;51.106;7.164;2023-04-15T08:51:54;14.90;1.40
21193;DHT22;10754;51.106;7.164;2023-04-15T08:54:22;14.90;1.00
21193;DHT22;10754;51.106;7.164;2023-04-15T08:56:48;15.00;1.00
21193;DHT22;10754;51.106;7.164;2023-04-15T08:59:14;15.00;1.00
21193;DHT22;10754;51.106;7.164;2023-04-15T09:01:40;15.00;1.00
21193;DHT22;10754;51.106;7.164;2023-04-15T09:04:06;15.00;1.00
21193;DHT22;10754;51.106;7.164;2023-04-15T09:06:32;15.10;99.90
21193;DHT22;10754;51.106;7.164;2023-04-15T09:08:58;15.20;1.00
21193;DHT22;10754;51.106;7.164;2023-04-15T09:11:24;15.20;99.90
21193;DHT22;10754;51.106;7.164;2023-04-15T09:13:50;15.20;1.00
21193;DHT22;10754;51.106;7.164;2023-04-15T09:16:15;15.30;99.90
21193;DHT22;10754;51.106;7.164;2023-04-15T09:18:42;15.30;99.90
21193;DHT22;10754;51.106;7.164;2023-04-15T09:21:10;15.40;99.90
21193;DHT22;10754;51.106;7.164;2023-04-15T09:23:53;15.50;99.90
21193;DHT22;10754;51.106;7.164;2023-04-15T09:26:30;15.50;99.90
21193;DHT22;10754;51.106;7.164;2023-04-15T09:29:08;15.60;99.90
21193;DHT22;10754;51.106;7.164;2023-04-15T09:31:35;15.60;99.90
21193;DHT22;10754;51.106;7.164;2023-04-15T09:34:01;15.70;99.90
21193;DHT22;10754;51.106;7.164;2023-04-15T09:36:27;15.70;99.90
21193;DHT22;10754;51.106;7.164;2023-04-15T09:38:57;15.80;99.90
21193;DHT22;10754;51.106;7.164;2023-04-15T09:41:24;15.80;99.90
21193;DHT22;10754;51.106;7.164;2023-04-15T09:43:49;15.80;99.90
21193;DHT22;10754;51.106;7.164;2023-04-15T09:46:15;15.80;99.90
21193;DHT22;10754;51.106;7.164;2023-04-15T09:48:41;15.90;99.90
21193;DHT22;10754;51.106;7.164;2023-04-15T09:51:06;15.90;99.90
21193;DHT22;10754;51.106;7.164;2023-04-15T09:53:33;15.90;99.90
21193;DHT22;10754;51.106;7.164;2023-04-15T09:55:59;15.90;99.90
21193;DHT22;10754;51.106;7.164;2023-04-15T09:58:28;16.00;99.90
21193;DHT22;10754;51.106;7.164;2023-04-15T10:00:55;16.10;99.90
21193;DHT22;10754;51.106;7.164;2023-04-15T10:03:28;16.10;99.90
21193;DHT22;10754;51.106;7.164;2023-04-15T10:05:57;16.30;99.90
21193;DHT22;10754;51.106;7.164;2023-04-15T10:08:28;16.40;99.90
21193;DHT22;10754;51.106;7.164;2023-04-15T10:10:54;16.50;99.90
21193;DHT22;10754;51.106;7.164;2023-04-15T10:13:26;16.60;99.90
21193;DHT22;10754;51.106;7.164;2023-04-15T10:16:16;16.70;99.90
21193;DHT22;10754;51.106;7.164;2023-04-15T10:18:47;16.80;99.90
21193;DHT22;10754;51.106;7.164;2023-04-15T10:21:15;17.00;99.90
21193;DHT22;10754;51.106;7.164;2023-04-15T10:23:44;17.10;99.90
21193;DHT22;10754;51.106;7.164;2023-04-15T10:26:11;17.30;99.90
21193;DHT22;10754;51.106;7.164;2023-04-15T10:28:37;17.30;99.90
21193;DHT22;10754;51.106;7.164;2023-04-15T10:31:03;17.40;99.90
21193;DHT22;10754;51.106;7.164;2023-04-15T10:33:29;17.40;99.90
21193;DHT22;10754;51.106;7.164;2023-04-15T10:35:55;17.30;99.90
21193;DHT22;10754;51.106;7.164;2023-04-15T10:38:37;17.30;99.90
21193;DHT22;10754;51.106;7.164;2023-04-15T10:41:21;17.30;99.90
21193;DHT22;10754;51.106;7.164;2023-04-15T10:43:51;17.30;99.90
21193;DHT22;10754;51.106;7.164;2023-04-15T10:49:11;17.20;99.90
21193;DHT22;10754;51.106;7.164;2023-04-15T10:51:40;17.20;99.90
21193;DHT22;10754;51.106;7.164;2023-04-15T10:56:50;17.30;99.90
21193;DHT22;10754;51.106;7.164;2023-04-15T10:59:16;17.20;99.90
21193;DHT22;10754;51.106;7.164;2023-04-15T11:01:53;17.20;99.90
21193;DHT22;10754;51.106;7.164;2023-04-15T11:04:51;17.20;99.90
21193;DHT22;10754;51.106;7.164;2023-04-15T11:12:39;17.10;99.90
21193;DHT22;10754;51.106;7.164;2023-04-15T11:17:49;17.10;99.90
21193;DHT22;10754;51.106;7.164;2023-04-15T11:20:15;17.10;99.90
21193;DHT22;10754;51.106;7.164;2023-04-15T11:22:50;17.20;99.90
21193;DHT22;10754;51.106;7.164;2023-04-15T11:25:25;17.30;99.90
21193;DHT22;10754;51.106;7.164;2023-04-15T11:27:52;17.40;99.90
21193;DHT22;10754;51.106;7.164;2023-04-15T11:30:24;17.60;99.90
21193;DHT22;10754;51.106;7.164;2023-04-15T11:32:51;17.70;99.90
21193;DHT22;10754;51.106;7.164;2023-04-15T11:35:17;17.70;99.90
21193;DHT22;10754;51.106;7.164;2023-04-15T11:37:44;17.70;99.90
21193;DHT22;10754;51.106;7.164;2023-04-15T11:40:10;17.60;99.90
21193;DHT22;10754;51.106;7.164;2023-04-15T11:42:36;17.50;99.90
21193;DHT22;10754;51.106;7.164;2023-04-15T11:45:12;17.50;99.90
21193;DHT22;10754;51.106;7.164;2023-04-15T11:47:39;17.40;99.90
21193;DHT22;10754;51.106;7.164;2023-04-15T11:50:19;17.30;99.90
21193;DHT22;10754;51.106;7.164;2023-04-15T11:52:57;17.30;99.90
21193;DHT22;10754;51.106;7.164;2023-04-15T11:55:24;17.20;99.90
21193;DHT22;10754;51.106;7.164;2023-04-15T11:58:04;17.10;99.90
21193;DHT22;10754;51.106;7.164;2023-04-15T12:00:29;17.00;99.90
21193;DHT22;10754;51.106;7.164;2023-04-15T12:03:14;17.00;99.90
21193;DHT22;10754;51.106;7.164;2023-04-15T12:13:54;16.70;99.90
21193;DHT22;10754;51.106;7.164;2023-04-15T12:16:21;16.80;99.90
21193;DHT22;10754;51.106;7.164;2023-04-15T12:18:50;16.70;99.90
21193;DHT22;10754;51.106;7.164;2023-04-15T12:21:19;16.70;99.90
21193;DHT22;10754;51.106;7.164;2023-04-15T12:23:52;16.60;99.90
21193;DHT22;10754;51.106;7.164;2023-04-15T12:26:29;16.60;99.90
21193;DHT22;10754;51.106;7.164;2023-04-15T12:29:03;16.60;99.90
21193;DHT22;10754;51.106;7.164;2023-04-15T12:31:29;16.50;99.90
21193;DHT22;10754;51.106;7.164;2023-04-15T12:33:56;16.30;99.90
21193;DHT22;10754;51.106;7.164;2023-04-15T12:36:22;16.30;99.90
21193;DHT22;10754;51.106;7.164;2023-04-15T12:38:48;16.20;99.90
21193;DHT22;10754;51.106;7.164;2023-04-15T12:41:14;16.10;99.90
21193;DHT22;10754;51.106;7.164;2023-04-15T12:43:39;16.10;99.90
21193;DHT22;10754;51.106;7.164;2023-04-15T12:46:05;16.00;99.90
21193;DHT22;10754;51.106;7.164;2023-04-15T12:48:33;15.90;99.90
21193;DHT22;10754;51.106;7.164;2023-04-15T12:50:58;15.90;1.40
21193;DHT22;10754;51.106;7.164;2023-04-15T12:53:24;15.80;99.90
21193;DHT22;10754;51.106;7.164;2023-04-15T12:55:50;15.80;99.90
21193;DHT22;10754;51.106;7.164;2023-04-15T12:58:16;15.80;1.00
21193;DHT22;10754;51.106;7.164;2023-04-15T13:00:42;15.70;1.00
21193;DHT22;10754;51.106;7.164;2023-04-15T13:03:07;15.70;1.00
21193;DHT22;10754;51.106;7.164;2023-04-15T13:05:33;15.70;1.00
21193;DHT22;10754;51.106;7.164;2023-04-15T13:07:58;15.70;1.00
21193;DHT22;10754;51.106;7.164;2023-04-15T13:10:24;15.60;1.00
21193;DHT22;10754;51.106;7.164;2023-04-15T13:12:50;15.60;1.00
21193;DHT22;10754;51.106;7.164;2023-04-15T13:15:18;15.60;1.00
21193;DHT22;10754;51.106;7.164;2023-04-15T13:17:45;15.50;1.00
21193;DHT22;10754;51.106;7.164;2023-04-15T13:20:11;15.50;1.00
21193;DHT22;10754;51.106;7.164;2023-04-15T13:22:36;15.50;1.00
21193;DHT22;10754;51.106;7.164;2023-04-15T13:25:02;15.40;1.00
21193;DHT22;10754;51.106;7.164;2023-04-15T13:27:27;15.30;1.00
21193;DHT22;10754;51.106;7.164;2023-04-15T13:29:53;15.30;1.00
21193;DHT22;10754;51.106;7.164;2023-04-15T13:32:19;15.40;1.00
21193;DHT22;10754;51.106;7.164;2023-04-15T13:34:44;15.40;1.00
21193;DHT22;10754;51.106;7.164;2023-04-15T13:37:10;15.30;1.00
21193;DHT22;10754;51.106;7.164;2023-04-15T13:39:35;15.30;1.00
21193;DHT22;10754;51.106;7.164;2023-04-15T13:42:01;15.20;1.00
21193;DHT22;10754;51.106;7.164;2023-04-15T13:44:27;15.20;1.00
21193;DHT22;10754;51.106;7.164;2023-04-15T13:46:52;15.20;1.00
21193;DHT22;10754;51.106;7.164;2023-04-15T13:49:18;15.20;1.00
21193;DHT22;10754;51.106;7.164;2023-04-15T13:51:43;15.10;1.00
21193;DHT22;10754;51.106;7.164;2023-04-15T13:54:09;15.20;1.00
21193;DHT22;10754;51.106;7.164;2023-04-15T13:56:34;15.20;1.00
21193;DHT22;10754;51.106;7.164;2023-04-15T13:59:00;15.20;1.00
21193;DHT22;10754;51.106;7.164;2023-04-15T14:01:27;15.20;1.00
21193;DHT22;10754;51.106;7.164;2023-04-15T14:03:52;15.20;1.00
21193;DHT22;10754;51.106;7.164;2023-04-15T14:06:18;15.30;1.00
21193;DHT22;10754;51.106;7.164;2023-04-15T14:08:43;15.30;1.00
21193;DHT22;10754;51.106;7.164;2023-04-15T14:11:09;15.30;1.00
21193;DHT22;10754;51.106;7.164;2023-04-15T14:13:35;15.30;1.00
21193;DHT22;10754;51.106;7.164;2023-04-15T14:16:01;15.40;1.00
21193;DHT22;10754;51.106;7.164;2023-04-15T14:18:26;15.60;1.00
21193;DHT22;10754;51.106;7.164;2023-04-15T14:20:52;15.60;1.00
21193;DHT22;10754;51.106;7.164;2023-04-15T14:23:18;15.70;1.00
21193;DHT22;10754;51.106;7.164;2023-04-15T14:25:43;15.80;1.00
21193;DHT22;10754;51.106;7.164;2023-04-15T14:28:09;15.80;1.00
21193;DHT22;10754;51.106;7.164;2023-04-15T14:30:34;15.90;1.00
21193;DHT22;10754;51.106;7.164;2023-04-15T14:33:00;15.90;1.00
21193;DHT22;10754;51.106;7.164;2023-04-15T14:35:25;15.80;1.00
21193;DHT22;10754;51.106;7.164;2023-04-15T14:37:55;15.80;1.00
21193;DHT22;10754;51.106;7.164;2023-04-15T14:40:20;15.70;1.00
21193;DHT22;10754;51.106;7.164;2023-04-15T14:42:46;15.70;1.00
21193;DHT22;10754;51.106;7.164;2023-04-15T14:45:12;15.80;1.00
21193;DHT22;10754;51.106;7.164;2023-04-15T14:47:37;15.70;1.00
21193;DHT22;10754;51.106;7.164;2023-04-15T14:50:03;15.70;1.00
21193;DHT22;10754;51.106;7.164;2023-04-15T14:52:30;15.70;1.00
21193;DHT22;10754;51.106;7.164;2023-04-15T14:54:57;15.70;1.00
21193;DHT22;10754;51.106;7.164;2023-04-15T14:57:23;15.70;1.00
21193;DHT22;10754;51.106;7.164;2023-04-15T14:59:48;15.70;1.00
21193;DHT22;10754;51.106;7.164;2023-04-15T15:02:14;15.70;1.00
21193;DHT22;10754;51.106;7.164;2023-04-15T15:04:39;15.60;1.00
21193;DHT22;10754;51.106;7.164;2023-04-15T15:07:05;15.70;1.00
21193;DHT22;10754;51.106;7.164;2023-04-15T15:09:31;15.60;1.00
21193;DHT22;10754;51.106;7.164;2023-04-15T15:11:56;15.60;1.00
21193;DHT22;10754;51.106;7.164;2023-04-15T15:14:22;15.50;1.00
21193;DHT22;10754;51.106;7.164;2023-04-15T15:16:47;15.60;1.00
21193;DHT22;10754;51.106;7.164;2023-04-15T15:19:13;15.50;1.00
21193;DHT22;10754;51.106;7.164;2023-04-15T15:21:38;15.50;1.00
21193;DHT22;10754;51.106;7.164;2023-04-15T15:24:04;15.50;1.00
21193;DHT22;10754;51.106;7.164;2023-04-15T15:26:30;15.40;1.00
21193;DHT22;10754;51.106;7.164;2023-04-15T15:28:55;15.40;1.00
21193;DHT22;10754;51.106;7.164;2023-04-15T15:31:21;15.30;1.00
21193;DHT22;10754;51.106;7.164;2023-04-15T15:33:47;15.30;1.00
21193;DHT22;10754;51.106;7.164;2023-04-15T15:36:12;15.20;1.00
21193;DHT22;10754;51.106;7.164;2023-04-15T15:38:39;15.20;1.00
21193;DHT22;10754;51.106;7.164;2023-04-15T15:41:05;15.20;1.00
21193;DHT22;10754;51.106;7.164;2023-04-15T15:43:30;15.20;1.00
21193;DHT22;10754;51.106;7.164;2023-04-15T15:45:56;15.20;1.00
21193;DHT22;10754;51.106;7.164;2023-04-15T15:48:24;15.20;1.00
21193;DHT22;10754;51.106;7.164;2023-04-15T15:50:51;15.20;1.00
21193;DHT22;10754;51.106;7.164;2023-04-15T15:53:16;15.20;1.00
21193;DHT22;10754;51.106;7.164;2023-04-15T15:55:45;15.10;1.00
21193;DHT22;10754;51.106;7.164;2023-04-15T15:58:12;15.10;1.00
21193;DHT22;10754;51.106;7.164;2023-04-15T16:00:38;15.10;1.00